Time;durP1;ratioP1;P1;durP2;ratioP2;P2;SDS_P1;SDS_P2;PMS_P1;PMS_P2;Temp;Humidity;BMP_temperature;BMP_pressure;BME280_temperature;BME280_humidity;BME280_pressure;Samples;Min_cycle;Max_cycle;Signal;HPM_P1;HPM_P2
2023/07/21 00:02:06;;;;;;;5.43;2.33;;;;;;;20.72;90.61;95808.38;5033514;28;20033;-83
2023/07/21 00:04:32;;;;;;;5.53;2.07;;;;;;;20.78;89.95;95798.63;5043154;28;20025;-82
2023/07/21 00:06:57;;;;;;;4.13;1.90;;;;;;;;;;5037933;28;20026;-81
2023/07/21 00:09:24;;;;;;;5.75;2.03;;;;;;;20.62;90.75;95795.63;5015494;28;20075;-81
2023/07/21 00:11:57;;;;;;;5.43;2.10;;;;;;;20.48;92.19;95794.97;5027801;28;20042;-81
2023/07/21 00:14:24;;;;;;;5.47;2.45;;;;;;;20.56;92.35;95785.06;5024473;28;20029;-81
2023/07/21 00:16:53;;;;;;;5.73;2.17;;;;;;;20.39;93.53;95783.03;5042210;28;20071;-82
2023/07/21 00:19:19;;;;;;;3.67;1.90;;;;;;;20.25;95.65;95781.63;5034080;28;20032;-81
2023/07/21 00:21:45;;;;;;;6.90;2.00;;;;;;;20.12;95.76;95772.00;5033740;28;20388;-83
2023/07/21 00:24:11;;;;;;;6.93;2.60;;;;;;;20.38;93.56;95776.06;5039306;28;20017;-82
2023/07/21 00:26:36;;;;;;;5.20;2.33;;;;;;;20.27;95.35;95771.53;5035756;28;20021;-82
2023/07/21 00:29:03;;;;;;;3.63;1.70;;;;;;;20.29;95.12;95763.28;5017740;28;20021;-82
2023/07/21 00:31:31;;;;;;;4.27;2.07;;;;;;;20.07;98.60;95768.38;5035528;28;20029;-81
2023/07/21 00:33:57;;;;;;;4.77;2.03;;;;;;;20.24;95.95;95770.13;5029043;28;20025;-81
2023/07/21 00:36:23;;;;;;;5.17;1.93;;;;;;;20.25;95.78;95768.25;5039318;28;20091;-81
2023/07/21 00:38:49;;;;;;;4.10;2.00;;;;;;;20.60;93.02;95762.97;5016812;28;20029;-82
2023/07/21 00:41:19;;;;;;;5.83;2.03;;;;;;;20.70;93.53;95765.06;5041393;28;20453;-82
2023/07/21 00:43:46;;;;;;;5.03;1.97;;;;;;;20.66;92.63;95763.91;5016169;28;20041;-81
2023/07/21 00:46:12;;;;;;;6.37;2.27;;;;;;;20.76;90.54;95763.28;5042123;28;20399;-82
2023/07/21 00:48:38;;;;;;;6.20;1.80;;;;;;;20.68;92.29;95761.78;5042870;28;20112;-82
2023/07/21 00:51:04;;;;;;;4.77;2.10;;;;;;;20.25;99.30;95757.59;5023027;28;20057;-82
2023/07/21 00:53:30;;;;;;;5.03;2.00;;;;;;;20.73;97.23;95758.44;5033067;28;20064;-81
2023/07/21 00:55:56;;;;;;;4.67;1.73;;;;;;;20.82;95.92;95757.00;5027820;28;20082;-82
2023/07/21 00:58:23;;;;;;;4.93;2.33;;;;;;;20.72;96.38;95757.59;5008708;28;20495;-82
2023/07/21 01:00:48;;;;;;;6.17;2.63;;;;;;;20.56;98.14;95763.69;5017767;28;20036;-81
2023/07/21 01:03:16;;;;;;;5.23;2.17;;;;;;;20.51;98.86;95763.56;5037964;28;20026;-82
2023/07/21 01:05:46;;;;;;;5.30;2.23;;;;;;;20.54;98.37;95761.22;5034480;28;20040;-81
2023/07/21 01:08:18;;;;;;;6.07;2.27;;;;;;;20.46;97.94;95762.38;5041174;28;20057;-82
2023/07/21 01:10:44;;;;;;;5.70;2.20;;;;;;;20.61;98.49;95750.41;5039670;28;20033;-82
2023/07/21 01:13:10;;;;;;;4.60;2.20;;;;;;;20.53;98.67;95756.13;5035418;28;20125;-82
2023/07/21 01:15:40;;;;;;;5.53;2.20;;;;;;;20.43;98.85;95756.69;5020934;28;20065;-81
2023/07/21 01:18:07;;;;;;;5.00;2.30;;;;;;;20.33;99.47;95759.94;5034823;28;20052;-82
2023/07/21 01:20:34;;;;;;;5.03;2.10;;;;;;;20.45;98.74;95754.56;5034905;28;20021;-81
2023/07/21 01:23:24;;;;;;;5.53;2.20;;;;;;;20.63;95.86;95753.69;5014786;28;20402;-82
2023/07/21 01:25:52;;;;;;;6.03;3.03;;;;;;;20.62;94.45;95752.88;5038410;28;20056;-81
2023/07/21 01:28:19;;;;;;;4.83;1.83;;;;;;;20.41;96.44;95745.41;5023857;28;20522;-81
2023/07/21 01:30:48;;;;;;;5.83;2.53;;;;;;;20.59;94.92;95749.81;5025039;28;20510;-82
2023/07/21 01:33:20;;;;;;;6.73;2.30;;;;;;;20.53;95.30;95740.91;5037978;28;20032;-81
2023/07/21 01:35:48;;;;;;;4.13;2.00;;;;;;;20.50;96.15;95733.31;5023732;28;20040;-82
2023/07/21 01:38:19;;;;;;;5.70;2.33;;;;;;;20.41;97.34;95746.22;5045783;28;20044;-82
2023/07/21 01:40:46;;;;;;;4.83;2.30;;;;;;;20.62;97.08;95730.66;5030454;28;20558;-81
2023/07/21 01:43:14;;;;;;;5.30;1.90;;;;;;;20.26;98.74;95737.88;5040957;28;20025;-82
2023/07/21 01:45:41;;;;;;;5.40;2.03;;;;;;;20.27;100.00;95741.34;5032528;28;20176;-81
2023/07/21 01:48:07;;;;;;;5.20;2.03;;;;;;;20.46;97.74;95734.84;5019937;28;20446;-82
2023/07/21 01:50:33;;;;;;;3.60;2.17;;;;;;;20.30;99.81;95728.34;5031647;28;20029;-81
2023/07/21 01:53:02;;;;;;;7.10;2.60;;;;;;;20.27;100.00;95728.81;5031860;28;20029;-82
2023/07/21 01:55:37;;;;;;;9.47;2.50;;;;;;;20.30;100.00;95723.00;5015048;28;20037;-82
2023/07/21 01:58:07;;;;;;;4.77;2.37;;;;;;;20.30;99.80;95720.34;5034531;28;20029;-82
2023/07/21 02:00:36;;;;;;;5.63;2.47;;;;;;;20.17;100.00;95724.03;5036070;28;20025;-82
2023/07/21 02:03:03;;;;;;;4.93;2.30;;;;;;;19.97;100.00;95723.56;5023629;28;20056;-82
2023/07/21 02:05:30;;;;;;;6.87;2.47;;;;;;;20.12;100.00;95725.78;5036504;28;20073;-81
2023/07/21 02:07:56;;;;;;;7.50;2.47;;;;;;;20.14;100.00;95723.69;5015523;28;20487;-82
2023/07/21 02:10:22;;;;;;;4.90;2.07;;;;;;;19.96;100.00;95722.75;5040428;28;20025;-81
2023/07/21 02:12:55;;;;;;;8.93;2.67;;;;;;;19.86;100.00;95717.19;5040773;28;20634;-81
2023/07/21 02:15:21;;;;;;;6.33;2.60;;;;;;;20.16;100.00;95716.28;5022940;28;20057;-82
2023/07/21 02:17:47;;;;;;;7.27;2.73;;;;;;;20.23;100.00;95706.28;5040485;28;20435;-81
2023/07/21 02:20:14;;;;;;;6.83;2.77;;;;;;;20.19;100.00;95705.13;5043129;28;20036;-81
2023/07/21 02:22:43;;;;;;;7.03;2.50;;;;;;;20.20;100.00;95706.75;5028311;28;20032;-82
2023/07/21 02:25:10;;;;;;;5.90;2.60;;;;;;;20.34;100.00;95708.13;5032722;28;20487;-82
2023/07/21 02:27:36;;;;;;;10.27;2.97;;;;;;;20.33;100.00;95711.84;5025257;28;20032;-81
2023/07/21 02:30:03;;;;;;;7.33;3.07;;;;;;;20.34;100.00;95701.97;5032490;28;20025;-82
2023/07/21 02:32:29;;;;;;;7.67;3.20;;;;;;;20.25;100.00;95709.53;5022615;28;20052;-81
2023/07/21 02:34:56;;;;;;;7.00;3.40;;;;;;;20.32;100.00;95706.72;5024627;28;20029;-81
2023/07/21 02:37:22;;;;;;;6.90;3.33;;;;;;;20.23;100.00;95703.63;5016158;28;20036;-82
2023/07/21 02:39:47;;;;;;;6.23;2.57;;;;;;;20.38;100.00;95697.78;5022300;28;20029;-82
2023/07/21 02:42:14;;;;;;;5.30;3.00;;;;;;;20.25;100.00;95705.03;5035834;28;20027;-83
2023/07/21 02:44:40;;;;;;;7.60;3.00;;;;;;;20.39;100.00;95702.91;5007569;28;20064;-82
2023/07/21 02:47:07;;;;;;;7.13;2.40;;;;;;;20.24;100.00;95705.25;5013280;28;20021;-82
2023/07/21 02:49:33;;;;;;;7.63;3.33;;;;;;;20.32;100.00;95698.72;5019376;28;20541;-81
2023/07/21 02:51:59;;;;;;;6.63;3.17;;;;;;;20.15;100.00;95699.41;5003106;28;20026;-81
2023/07/21 02:54:25;;;;;;;7.90;2.70;;;;;;;20.09;100.00;95700.38;5025322;28;20022;-81
2023/07/21 02:56:53;;;;;;;4.83;2.50;;;;;;;20.14;100.00;95694.31;5016656;28;20033;-82
2023/07/21 02:59:24;;;;;;;4.97;2.33;;;;;;;20.37;100.00;95690.84;5020642;28;20442;-81
2023/07/21 03:01:54;;;;;;;6.93;2.70;;;;;;;20.28;100.00;95698.38;5029657;28;20032;-81
2023/07/21 03:04:25;;;;;;;5.17;2.63;;;;;;;20.56;100.00;95691.56;5015811;28;20118;-81
2023/07/21 03:06:56;;;;;;;6.13;2.83;;;;;;;20.48;100.00;95693.47;5015646;28;20041;-81
2023/07/21 03:09:22;;;;;;;7.80;3.10;;;;;;;20.65;100.00;95685.56;5022145;28;20070;-81
2023/07/21 03:11:48;;;;;;;7.20;3.10;;;;;;;20.91;100.00;95686.91;5041157;28;20483;-81
2023/07/21 03:14:51;;;;;;;7.25;2.58;;;;;;;21.13;99.66;95679.06;5045441;28;20037;-82
2023/07/21 03:17:19;;;;;;;5.90;2.67;;;;;;;20.89;100.00;95686.34;5026330;28;20109;-81
2023/07/21 03:19:48;;;;;;;6.00;2.80;;;;;;;20.83;100.00;95692.66;5015255;28;20021;-82
2023/07/21 03:22:16;;;;;;;8.43;3.50;;;;;;;20.80;100.00;95695.78;5021618;28;20017;-82
2023/07/21 03:24:45;;;;;;;6.53;2.67;;;;;;;21.04;99.33;95695.72;5022002;28;20388;-81
2023/07/21 03:27:12;;;;;;;7.07;2.83;;;;;;;21.04;100.00;95696.53;5037999;28;20064;-82
2023/07/21 03:29:39;;;;;;;6.43;2.50;;;;;;;21.02;100.00;95703.97;5040136;28;20032;-82
2023/07/21 03:32:07;;;;;;;4.90;2.47;;;;;;;21.13;100.00;95699.63;5025330;28;20052;-82
2023/07/21 03:34:35;;;;;;;7.07;2.63;;;;;;;21.01;100.00;95701.53;5028061;28;20020;-81
2023/07/21 03:37:04;;;;;;;4.43;2.20;;;;;;;20.97;100.00;95695.84;5034138;28;20021;-82
2023/07/21 03:39:31;;;;;;;7.50;3.23;;;;;;;20.60;100.00;95692.69;5030781;28;20024;-81
2023/07/21 03:41:56;;;;;;;6.23;2.73;;;;;;;20.49;100.00;95689.78;5045445;28;20029;-82
2023/07/21 03:44:22;;;;;;;7.30;2.70;;;;;;;20.51;100.00;95694.09;5022793;28;20022;-82
2023/07/21 03:46:48;;;;;;;7.10;2.90;;;;;;;20.35;100.00;95693.72;5031448;28;20456;-82
2023/07/21 03:49:29;;;;;;;5.73;2.70;;;;;;;20.39;100.00;95700.25;5039458;28;20479;-81
2023/07/21 03:52:02;;;;;;;;;;;;;;;20.10;100.00;95690.50;5034821;28;20021;-81
2023/07/21 03:54:29;;;;;;;5.57;2.53;;;;;;;20.04;100.00;95694.91;5027226;28;19913;-82
2023/07/21 03:56:54;;;;;;;7.70;2.70;;;;;;;20.12;100.00;95686.56;5036748;28;20084;-82
2023/07/21 03:59:20;;;;;;;11.70;2.63;;;;;;;20.32;100.00;95683.53;5018195;28;20042;-82
2023/07/21 04:01:45;;;;;;;5.77;2.63;;;;;;;20.56;100.00;95679.00;5040862;28;20033;-82
2023/07/21 04:04:11;;;;;;;5.83;2.90;;;;;;;20.61;100.00;95683.63;5021127;28;20025;-82
2023/07/21 04:06:36;;;;;;;6.27;3.10;;;;;;;20.66;100.00;95683.75;5036083;28;20132;-82
2023/07/21 04:09:02;;;;;;;6.57;2.63;;;;;;;20.55;100.00;95687.22;5056106;28;20497;-82
2023/07/21 04:11:28;;;;;;;5.03;2.60;;;;;;;20.68;100.00;95693.13;5040137;28;20017;-82
2023/07/21 04:13:54;;;;;;;5.37;2.73;;;;;;;20.68;100.00;95684.31;5026555;28;20497;-82
2023/07/21 04:16:19;;;;;;;6.53;2.40;;;;;;;20.69;100.00;95684.09;5014605;28;20037;-82
2023/07/21 04:18:45;;;;;;;5.03;2.30;;;;;;;20.83;100.00;95681.16;5024965;28;20471;-81
2023/07/21 04:21:10;;;;;;;5.37;2.67;;;;;;;20.77;100.00;95677.56;5034543;28;20375;-82
2023/07/21 04:23:36;;;;;;;6.10;2.23;;;;;;;20.52;100.00;95680.50;5024249;28;20013;-82
2023/07/21 04:26:04;;;;;;;8.40;3.05;;;;;;;20.53;100.00;95673.31;5043500;28;20032;-81
2023/07/21 04:28:31;;;;;;;9.32;2.50;;;;;;;20.37;100.00;95667.59;5026623;28;20029;-82
2023/07/21 04:30:56;;;;;;;5.37;2.30;;;;;;;20.36;100.00;95676.69;5024492;28;20164;-82
2023/07/21 04:33:29;;;;;;;5.40;2.70;;;;;;;20.42;100.00;95669.56;5021985;28;20032;-82
2023/07/21 04:35:54;;;;;;;7.27;2.93;;;;;;;20.41;100.00;95674.09;5023308;28;20467;-82
2023/07/21 04:38:23;;;;;;;9.43;3.07;;;;;;;20.45;100.00;95677.91;5018971;28;20018;-81
2023/07/21 04:41:13;;;;;;;6.05;2.88;;;;;;;20.66;100.00;95678.41;5021303;28;20486;-82
2023/07/21 04:43:40;;;;;;;5.53;2.93;;;;;;;20.91;100.00;95675.41;5028328;28;20021;-82
2023/07/21 04:46:06;;;;;;;4.88;2.58;;;;;;;20.93;100.00;95666.13;5021749;28;20021;-82
2023/07/21 04:48:37;;;;;;;5.88;2.88;;;;;;;20.74;100.00;95669.19;5019071;28;20554;-81
2023/07/21 04:51:03;;;;;;;7.67;3.70;;;;;;;21.00;100.00;95670.50;5021459;28;20029;-82
2023/07/21 04:53:30;;;;;;;14.63;4.80;;;;;;;21.01;100.00;95669.44;5036286;28;20017;-82
2023/07/21 04:55:57;;;;;;;9.17;4.20;;;;;;;21.11;100.00;95665.09;5019728;28;20030;-82
2023/07/21 04:58:23;;;;;;;8.23;3.78;;;;;;;21.07;100.00;95669.31;5018898;28;20022;-82
2023/07/21 05:00:48;;;;;;;7.32;2.92;;;;;;;21.17;100.00;95669.50;5032584;28;20033;-82
2023/07/21 05:03:14;;;;;;;6.00;3.22;;;;;;;20.99;100.00;95674.22;5040942;28;20048;-81
2023/07/21 05:05:41;;;;;;;4.72;2.53;;;;;;;20.94;100.00;95664.25;5015434;28;20025;-82
2023/07/21 05:08:07;;;;;;;6.40;2.37;;;;;;;21.09;100.00;95661.03;5035322;28;20025;-82
2023/07/21 05:10:35;;;;;;;5.83;2.50;;;;;;;21.18;100.00;95662.28;5018584;28;20476;-82
2023/07/21 05:13:01;;;;;;;5.50;2.70;;;;;;;21.39;100.00;95664.31;5021969;28;20017;-82
2023/07/21 05:15:49;;;;;;;9.10;2.22;;;;;;;;;;5032992;28;20041;-82
2023/07/21 05:18:29;;;;;;;5.50;2.20;;;;;;;21.16;100.00;95661.72;5022017;28;20025;-82
2023/07/21 05:21:00;;;;;;;5.43;2.05;;;;;;;21.50;100.00;95664.50;5034094;28;20030;-83
2023/07/21 05:23:49;;;;;;;3.88;1.67;;;;;;;21.91;100.00;95660.59;5019557;28;20022;-82
2023/07/21 05:26:21;;;;;;;3.83;1.85;;;;;;;22.45;95.34;95660.84;5045529;28;20029;-82
2023/07/21 05:28:49;;;;;;;4.47;2.25;;;;;;;22.05;94.77;95669.09;5021332;28;20083;-82
2023/07/21 05:31:16;;;;;;;5.28;1.92;;;;;;;22.78;89.01;95659.13;5026979;28;20125;-82
2023/07/21 05:33:53;;;;;;;4.85;1.90;;;;;;;22.90;96.48;95661.66;5038102;28;20021;-83
2023/07/21 05:36:21;;;;;;;6.35;2.47;;;;;;;23.58;94.75;95654.88;5039860;28;20025;-82
2023/07/21 05:38:48;;;;;;;9.00;4.32;;;;;;;23.84;99.29;95649.72;5020335;28;20022;-82
2023/07/21 05:41:17;;;;;;;10.10;3.67;;;;;;;23.24;100.00;95647.06;5040839;28;20028;-82
2023/07/21 05:43:50;;;;;;;5.68;2.40;;;;;;;23.10;100.00;95650.38;5023158;28;20021;-82
2023/07/21 05:46:28;;;;;;;7.15;2.53;;;;;;;22.93;100.00;95643.22;5004130;28;20025;-82
2023/07/21 05:49:02;;;;;;;6.25;2.88;;;;;;;23.32;100.00;95644.97;5022771;28;20044;-81
2023/07/21 05:51:29;;;;;;;8.75;2.60;;;;;;;23.29;100.00;95647.09;5024735;28;20052;-82
2023/07/21 05:54:04;;;;;;;4.57;2.20;;;;;;;23.57;100.00;95645.19;5024457;28;20032;-80
2023/07/21 05:56:30;;;;;;;6.43;2.88;;;;;;;23.61;97.49;95643.63;5012046;28;20034;-82
2023/07/21 05:58:59;;;;;;;3.65;1.95;;;;;;;23.55;95.52;95647.34;5028757;28;20523;-82
2023/07/21 06:01:27;;;;;;;3.95;2.55;;;;;;;23.47;100.00;95642.41;5015329;28;20108;-82
2023/07/21 06:03:53;;;;;;;7.57;2.88;;;;;;;23.85;100.00;95643.31;5034456;28;20033;-82
2023/07/21 06:06:20;;;;;;;6.65;3.15;;;;;;;23.83;100.00;95646.25;5018323;28;20306;-81
2023/07/21 06:08:54;;;;;;;5.80;3.13;;;;;;;23.97;100.00;95649.28;5030289;28;20047;-81
2023/07/21 06:11:43;;;;;;;4.20;2.67;;;;;;;24.67;99.48;95640.03;5025508;28;20466;-81
2023/07/21 06:14:35;;;;;;;6.13;2.55;;;;;;;25.22;91.98;95645.06;5024287;28;20036;-81
2023/07/21 06:17:13;;;;;;;3.90;2.20;;;;;;;25.38;90.75;95644.03;5007472;28;20080;-81
2023/07/21 06:19:39;;;;;;;5.40;2.65;;;;;;;26.07;87.42;95640.84;5023213;28;20108;-81
2023/07/21 06:22:05;;;;;;;5.70;2.90;;;;;;;26.46;81.43;95637.53;5044539;28;20036;-82
2023/07/21 06:24:39;;;;;;;8.70;2.50;;;;;;;26.42;79.88;95646.41;5023532;28;20021;-82
2023/07/21 06:27:05;;;;;;;6.20;2.70;;;;;;;26.66;73.73;95646.63;5017321;28;20069;-82
2023/07/21 06:29:31;;;;;;;6.15;2.50;;;;;;;26.81;66.20;95643.88;5016676;28;20025;-83
2023/07/21 06:31:57;;;;;;;6.90;2.33;;;;;;;26.30;59.59;95649.41;5034518;28;20091;-83
2023/07/21 06:34:23;;;;;;;4.93;1.70;;;;;;;26.61;54.31;95638.56;5033948;28;20018;-83
2023/07/21 06:37:08;;;;;;;8.77;2.30;;;;;;;26.69;50.45;95640.69;5032388;28;20037;-83
2023/07/21 06:39:55;;;;;;;4.00;2.00;;;;;;;27.01;50.57;95638.38;5034746;28;20033;-82
2023/07/21 06:42:58;;;;;;;;;;;;;;;27.66;47.35;95638.25;5043097;28;20039;-82
2023/07/21 06:45:39;;;;;;;5.95;2.03;;;;;;;27.68;45.54;95644.19;5032844;28;19913;-81
2023/07/21 06:48:28;;;;;;;3.80;2.03;;;;;;;27.90;46.35;95642.97;5038758;28;20438;-82
2023/07/21 06:51:00;;;;;;;3.30;1.48;;;;;;;28.19;44.61;95643.78;5020152;28;20044;-83
2023/07/21 06:53:26;;;;;;;4.97;2.50;;;;;;;28.32;44.53;95642.31;5031252;28;20029;-82
2023/07/21 06:55:54;;;;;;;7.55;2.10;;;;;;;28.83;41.44;95630.91;5020859;28;20049;-82
2023/07/21 06:58:20;;;;;;;4.47;2.28;;;;;;;29.73;40.36;95639.19;5016497;28;20025;-82
2023/07/21 07:00:46;;;;;;;4.65;2.08;;;;;;;30.07;39.92;95631.56;5031184;28;20027;-82
2023/07/21 07:03:12;;;;;;;5.65;2.15;;;;;;;30.65;38.18;95627.53;5045077;28;20021;-82
2023/07/21 07:05:41;;;;;;;4.80;2.00;;;;;;;29.82;39.70;95642.84;5039769;28;20068;-82
2023/07/21 07:08:07;;;;;;;4.80;2.10;;;;;;;29.16;41.29;95641.09;5021991;28;20024;-82
2023/07/21 07:10:39;;;;;;;3.45;2.00;;;;;;;29.87;39.55;95642.75;5031593;28;20056;-82
2023/07/21 07:13:09;;;;;;;7.43;1.80;;;;;;;29.96;39.89;95638.25;5024994;28;20026;-83
2023/07/21 07:15:35;;;;;;;5.97;2.20;;;;;;;30.60;38.50;95637.69;5024598;28;20038;-82
2023/07/21 07:18:05;;;;;;;4.03;1.83;;;;;;;30.13;38.97;95636.91;5012082;28;20029;-81
2023/07/21 07:20:31;;;;;;;7.03;1.75;;;;;;;30.77;38.42;95636.00;5028932;28;20029;-82
2023/07/21 07:22:57;;;;;;;5.85;1.80;;;;;;;31.23;36.68;95637.75;5035585;28;20379;-82
2023/07/21 07:25:35;;;;;;;4.15;1.80;;;;;;;31.27;37.53;95629.78;5018134;28;20064;-82
2023/07/21 07:28:04;;;;;;;3.10;1.60;;;;;;;32.22;36.17;95637.09;5036587;28;20387;-82
2023/07/21 07:30:34;;;;;;;4.72;2.08;;;;;;;32.08;36.35;95637.97;5024001;28;20025;-82
2023/07/21 07:33:00;;;;;;;3.25;1.92;;;;;;;31.84;36.24;95640.19;5036838;28;20051;-83
2023/07/21 07:35:26;;;;;;;2.45;1.55;;;;;;;32.43;35.44;95637.38;5020482;28;20036;-83
2023/07/21 07:37:52;;;;;;;3.63;2.03;;;;;;;32.08;35.39;95634.44;5031663;28;20033;-82
2023/07/21 07:40:20;;;;;;;3.15;1.80;;;;;;;30.59;37.38;95638.81;5034364;28;20052;-82
2023/07/21 07:42:57;;;;;;;3.15;1.65;;;;;;;31.47;35.94;95642.16;5032304;28;20047;-82
2023/07/21 07:45:29;;;;;;;3.58;2.00;;;;;;;30.97;36.86;95636.69;5018123;28;20487;-82
2023/07/21 07:48:02;;;;;;;3.92;1.90;;;;;;;31.57;36.27;95631.03;5033489;28;20396;-82
2023/07/21 07:50:29;;;;;;;4.38;1.73;;;;;;;30.64;36.77;95631.34;5012116;28;20032;-82
2023/07/21 07:52:59;;;;;;;5.18;1.92;;;;;;;32.80;34.89;95639.63;5031959;28;20071;-82
2023/07/21 07:55:52;;;;;;;6.97;2.10;;;;;;;33.47;33.92;95633.03;5029201;28;20030;-82
2023/07/21 07:58:18;;;;;;;;;;;;;;;32.98;33.58;95629.59;5032739;28;20038;-83
2023/07/21 08:00:45;;;;;;;3.38;1.77;;;;;;;34.60;31.71;95629.34;5026663;28;19982;-82
2023/07/21 08:03:11;;;;;;;4.97;2.03;;;;;;;33.82;32.88;95634.97;5024218;28;20113;-82
2023/07/21 08:05:53;;;;;;;3.83;1.92;;;;;;;33.59;33.02;95637.84;5025412;28;20053;-82
2023/07/21 08:08:21;;;;;;;6.10;2.28;;;;;;;33.75;33.50;95640.91;5032163;28;20053;-83
2023/07/21 08:10:57;;;;;;;4.28;1.85;;;;;;;33.40;33.64;95646.34;5041752;28;20088;-82
2023/07/21 08:13:31;;;;;;;4.28;1.80;;;;;;;32.07;34.16;95660.06;5021200;28;20040;-82
2023/07/21 08:15:56;;;;;;;4.38;1.98;;;;;;;31.61;35.16;95661.91;5019596;28;20487;-83
2023/07/21 08:18:22;;;;;;;4.10;1.70;;;;;;;32.00;35.00;95659.69;5022761;28;20044;-82
2023/07/21 08:20:54;;;;;;;5.78;2.15;;;;;;;32.05;35.05;95671.22;5039391;28;20033;-82
2023/07/21 08:23:19;;;;;;;4.78;1.95;;;;;;;30.42;35.92;95674.66;5035241;28;20043;-84
2023/07/21 08:25:45;;;;;;;3.42;1.80;;;;;;;30.05;36.79;95673.66;5039242;28;20030;-82
2023/07/21 08:28:10;;;;;;;4.55;1.67;;;;;;;30.97;35.70;95670.06;5039222;28;20055;-82
2023/07/21 08:30:40;;;;;;;4.80;1.52;;;;;;;31.20;35.52;95676.38;5021536;28;20060;-83
2023/07/21 08:33:05;;;;;;;5.65;1.90;;;;;;;30.71;36.84;95675.16;5030760;28;20032;-83
2023/07/21 08:35:32;;;;;;;4.05;1.70;;;;;;;29.93;37.36;95681.44;5050296;28;20029;-82
2023/07/21 08:37:58;;;;;;;5.28;2.45;;;;;;;29.89;36.14;95685.84;5021238;28;20566;-82
2023/07/21 08:40:24;;;;;;;3.28;1.60;;;;;;;30.00;35.91;95679.16;5046516;28;20033;-82
2023/07/21 08:42:50;;;;;;;3.78;1.77;;;;;;;30.25;36.35;95678.75;5024203;28;20013;-82
2023/07/21 08:45:18;;;;;;;3.78;1.60;;;;;;;29.98;36.91;95681.34;5018283;28;20045;-83
2023/07/21 08:47:43;;;;;;;3.00;1.52;;;;;;;29.97;36.51;95683.25;5029358;28;20017;-82
2023/07/21 08:50:09;;;;;;;5.78;1.45;;;;;;;28.83;37.40;95682.34;5036109;28;20095;-82
2023/07/21 08:52:35;;;;;;;3.53;1.75;;;;;;;29.23;37.27;95687.56;5037398;28;20021;-82
2023/07/21 08:55:00;;;;;;;2.78;1.60;;;;;;;29.36;37.37;95679.53;5045405;28;20521;-82
2023/07/21 08:57:27;;;;;;;5.60;1.60;;;;;;;29.61;37.31;95688.41;5039037;28;20538;-82
2023/07/21 09:00:03;;;;;;;4.22;1.58;;;;;;;29.60;36.56;95687.63;5033943;28;20023;-82
2023/07/21 09:02:39;;;;;;;4.13;1.50;;;;;;;29.76;35.97;95687.41;5017646;28;20024;-82
2023/07/21 09:05:15;;;;;;;3.50;1.30;;;;;;;29.89;36.93;95692.06;5018299;28;20162;-82
2023/07/21 09:07:52;;;;;;;3.05;1.83;;;;;;;29.83;36.83;95693.25;5039473;28;20033;-82
2023/07/21 09:10:34;;;;;;;3.90;1.75;;;;;;;30.27;36.12;95698.22;5020512;28;20025;-82
2023/07/21 09:13:13;;;;;;;7.70;2.38;;;;;;;30.92;35.67;95696.50;5039869;28;20593;-83
2023/07/21 09:15:40;;;;;;;6.22;2.30;;;;;;;31.38;35.35;95687.44;5027605;28;20040;-83
2023/07/21 09:18:06;;;;;;;3.42;1.90;;;;;;;31.76;34.85;95684.41;5032400;28;20029;-82
2023/07/21 09:20:33;;;;;;;3.60;1.80;;;;;;;30.63;35.34;95685.94;5037322;28;20021;-82
2023/07/21 09:23:08;;;;;;;3.42;1.60;;;;;;;31.28;34.73;95677.56;5050856;28;20049;-82
2023/07/21 09:25:34;;;;;;;3.05;1.55;;;;;;;32.61;33.45;95677.97;5017916;28;20018;-82
2023/07/21 09:28:03;;;;;;;2.65;1.48;;;;;;;33.64;32.49;95680.53;5015770;28;20029;-82
2023/07/21 09:30:29;;;;;;;3.50;1.90;;;;;;;34.14;31.48;95682.75;5034962;28;20028;-82
2023/07/21 09:32:58;;;;;;;6.53;2.00;;;;;;;34.63;30.75;95675.13;5037112;28;20025;-83
2023/07/21 09:35:24;;;;;;;6.30;1.85;;;;;;;35.51;29.31;95671.59;5042437;28;20482;-82
2023/07/21 09:37:51;;;;;;;3.83;2.00;;;;;;;33.97;30.53;95678.91;5041926;28;20025;-82
2023/07/21 09:40:17;;;;;;;3.78;1.67;;;;;;;33.76;31.57;95676.00;5017877;28;20025;-83
2023/07/21 09:42:43;;;;;;;10.32;2.42;;;;;;;33.40;32.21;95678.22;5035320;28;20442;-83
2023/07/21 09:45:09;;;;;;;3.00;1.77;;;;;;;33.83;30.94;95670.06;5042493;28;20021;-84
2023/07/21 09:47:39;;;;;;;5.75;2.00;;;;;;;33.32;31.68;95663.47;5017173;28;20159;-84
2023/07/21 09:50:05;;;;;;;4.55;2.15;;;;;;;33.44;30.50;95663.66;5006606;28;20080;-83
2023/07/21 09:52:37;;;;;;;3.65;1.92;;;;;;;34.61;29.40;95653.59;5018570;28;20579;-83
2023/07/21 09:55:15;;;;;;;;;;;;;;;35.45;29.39;95652.97;5014707;28;20086;-83
2023/07/21 09:57:45;;;;;;;3.65;1.90;;;;;;;36.16;27.88;95652.91;5039714;28;19947;-83
2023/07/21 10:00:14;;;;;;;4.45;2.20;;;;;;;36.29;28.24;95642.81;5035218;28;20051;-83
2023/07/21 10:02:46;;;;;;;4.90;1.85;;;;;;;36.61;27.59;95643.88;5035180;28;20029;-83
2023/07/21 10:05:19;;;;;;;4.22;1.85;;;;;;;36.35;27.44;95647.72;5018866;28;20025;-84
2023/07/21 10:07:49;;;;;;;4.82;2.05;;;;;;;37.07;26.48;95644.63;5017110;28;20080;-85
2023/07/21 10:10:16;;;;;;;3.28;1.70;;;;;;;36.59;27.48;95646.19;5025047;28;20414;-85
2023/07/21 10:12:48;;;;;;;5.28;1.73;;;;;;;35.61;28.06;95645.81;5020899;28;20017;-84
2023/07/21 10:15:16;;;;;;;5.22;1.88;;;;;;;35.73;28.38;95643.13;5015286;28;20048;-85
2023/07/21 10:17:54;;;;;;;5.18;2.47;;;;;;;36.49;28.22;95644.69;5019856;28;21495;-84
2023/07/21 10:20:44;;;;;;;4.80;2.05;;;;;;;35.76;28.24;95639.75;5031592;28;20130;-84
2023/07/21 10:23:11;;;;;;;2.97;1.60;;;;;;;35.63;28.34;95635.34;5012404;28;20022;-84
2023/07/21 10:25:56;;;;;;;3.30;1.92;;;;;;;37.19;27.52;95633.66;5029842;28;20504;-84
2023/07/21 10:28:35;;;;;;;4.78;1.75;;;;;;;37.65;27.25;95630.69;5015416;28;20497;-84
2023/07/21 10:31:30;;;;;;;3.78;2.25;;;;;;;36.17;28.48;95642.75;5040245;28;20030;-85
2023/07/21 10:34:16;;;;;;;3.80;1.80;;;;;;;33.98;30.83;95655.94;5029617;28;20037;-85
2023/07/21 10:36:46;;;;;;;4.85;3.03;;;;;;;33.91;31.16;95643.94;5023795;28;20029;-84
2023/07/21 10:39:14;;;;;;;5.03;3.45;;;;;;;34.49;30.36;95635.13;5013526;28;20021;-84
2023/07/21 10:41:40;;;;;;;5.95;2.22;;;;;;;34.29;30.87;95637.78;5024663;28;20159;-84
2023/07/21 10:44:10;;;;;;;5.70;2.20;;;;;;;33.42;31.78;95646.78;5031139;28;20009;-84
2023/07/21 10:46:43;;;;;;;2.85;1.80;;;;;;;32.79;32.53;95651.59;5026248;28;20111;-84
2023/07/21 10:49:10;;;;;;;3.90;1.92;;;;;;;33.39;31.80;95650.16;5026509;28;20052;-83
2023/07/21 10:51:39;;;;;;;3.90;2.00;;;;;;;33.04;32.88;95650.13;5008443;28;20021;-83
2023/07/21 10:54:05;;;;;;;5.53;1.92;;;;;;;33.70;31.81;95657.41;5031285;28;20097;-84
2023/07/21 10:56:43;;;;;;;4.15;2.00;;;;;;;33.38;32.05;95659.47;5031651;28;20060;-83
2023/07/21 10:59:09;;;;;;;3.85;1.70;;;;;;;34.69;30.39;95660.16;5017647;28;20083;-84
2023/07/21 11:01:56;;;;;;;4.13;1.65;;;;;;;34.23;30.20;95659.78;5040261;28;20025;-83
2023/07/21 11:04:23;;;;;;;3.97;2.03;;;;;;;35.72;29.00;95649.75;5034410;28;20012;-83
2023/07/21 11:06:59;;;;;;;3.78;1.80;;;;;;;34.08;30.11;95649.41;5032829;28;20095;-83
2023/07/21 11:09:27;;;;;;;6.00;1.85;;;;;;;34.51;30.25;95645.75;5033009;28;20037;-83
2023/07/21 11:11:57;;;;;;;4.03;1.80;;;;;;;35.41;29.58;95650.13;5040298;28;20021;-83
2023/07/21 11:14:24;;;;;;;4.15;2.00;;;;;;;35.10;29.95;95653.22;5030169;28;21309;-82
2023/07/21 11:16:52;;;;;;;4.05;1.83;;;;;;;35.37;29.03;95644.50;5032164;28;20037;-83
2023/07/21 11:19:20;;;;;;;3.08;1.80;;;;;;;35.48;28.65;95650.41;5012560;28;20018;-83
2023/07/21 11:21:46;;;;;;;4.60;1.88;;;;;;;35.33;29.07;95649.03;5035327;28;20433;-84
2023/07/21 11:24:26;;;;;;;4.47;1.90;;;;;;;35.92;28.24;95652.78;5041352;28;20030;-84
2023/07/21 11:27:07;;;;;;;3.33;1.70;;;;;;;34.22;29.62;95660.13;5034276;28;20029;-83
2023/07/21 11:29:35;;;;;;;5.07;1.90;;;;;;;34.73;29.55;95664.63;5032542;28;20021;-83
2023/07/21 11:32:03;;;;;;;4.47;2.00;;;;;;;35.88;28.26;95658.13;5017033;28;20071;-83
2023/07/21 11:34:29;;;;;;;6.85;3.80;;;;;;;35.41;28.54;95656.41;5037567;28;20044;-83
2023/07/21 11:36:58;;;;;;;3.67;2.10;;;;;;;35.68;27.11;95654.28;5040501;28;20061;-84
2023/07/21 11:39:24;;;;;;;3.70;1.77;;;;;;;35.03;28.43;95652.94;5016140;28;20549;-83
2023/07/21 11:41:58;;;;;;;3.35;1.63;;;;;;;35.04;29.44;95647.13;5043122;28;20033;-83
2023/07/21 11:44:32;;;;;;;2.60;1.58;;;;;;;35.72;28.47;95648.97;5036675;28;20446;-84